< < Back
Terminal Aerodrome Forecast


Current Version              Previous Versions:   1  2  3  4  5  6  7  8  9  

Terminal Aerodrome Forecast

193
FTUS44 KMOB 040526
TAFMOB
TAF
KMOB 040526Z 0406/0506 15011KT 4SM BR OVC002
     FM040800 15006KT 1/4SM FG OVC004
     FM041500 18011KT 4SM BR OVC007
     FM042100 17011KT P6SM BKN025
     FM050400 16005KT 2SM BR OVC003=

Latest METAR

324
SAUS80 KWBC 041800
MTRMOB
METAR KMOB 041756Z 17012G22KT 7SM FEW022 SCT029 BKN043 26/19 A3001 RMK
AO2 SLP159 T02560189 10267 20183 58020


USA.gov is the U.S. government's official web portal to all federal, state and local government web resources and services.